Time;durP1;ratioP1;P1;durP2;ratioP2;P2;SDS_P1;SDS_P2;PMS_P1;PMS_P2;Temp;Humidity;BMP_temperature;BMP_pressure;BME280_temperature;BME280_humidity;BME280_pressure;Samples;Min_cycle;Max_cycle;Signal;HPM_P1;HPM_P2
2022/05/24 00:02:05;;;;;;;21.70;15.77;;;15.80;99.90;;;;;;5115231;28;20172;-52
2022/05/24 00:04:31;;;;;;;18.48;14.48;;;15.80;99.90;;;;;;5114715;28;20235;-51
2022/05/24 00:06:58;;;;;;;16.25;14.05;;;15.80;99.90;;;;;;5115041;28;20667;-51
2022/05/24 00:09:24;;;;;;;18.17;13.90;;;15.80;99.90;;;;;;5115511;28;20160;-52
2022/05/24 00:11:49;;;;;;;17.25;14.15;;;15.70;99.90;;;;;;5115024;28;20163;-51
2022/05/24 00:14:15;;;;;;;18.15;14.52;;;15.80;99.90;;;;;;5115114;28;21035;-52
2022/05/24 00:16:40;;;;;;;19.20;14.65;;;15.70;99.90;;;;;;5115048;28;20175;-52
2022/05/24 00:19:06;;;;;;;17.48;14.43;;;15.70;99.90;;;;;;5115175;28;20161;-52
2022/05/24 00:21:32;;;;;;;17.10;13.90;;;15.70;99.90;;;;;;5096607;28;20210;-52
2022/05/24 00:23:59;;;;;;;21.15;14.13;;;15.80;99.90;;;;;;5113961;28;20165;-52
2022/05/24 00:26:30;;;;;;;16.13;13.40;;;15.80;99.90;;;;;;5115257;28;20176;-52
2022/05/24 00:28:56;;;;;;;15.25;12.27;;;15.70;99.90;;;;;;5115010;28;20183;-51
2022/05/24 00:31:22;;;;;;;16.02;13.13;;;15.70;99.90;;;;;;5115003;28;20169;-52
2022/05/24 00:33:48;;;;;;;17.55;12.70;;;15.70;99.90;;;;;;5114707;28;20200;-52
2022/05/24 00:36:13;;;;;;;16.75;13.32;;;15.70;99.90;;;;;;5114676;28;20193;-52
2022/05/24 00:38:39;;;;;;;19.45;13.77;;;15.80;99.90;;;;;;5114594;28;20175;-51
2022/05/24 00:41:27;;;;;;;19.08;13.68;;;15.80;99.90;;;;;;5114823;28;20536;-51
2022/05/24 00:44:16;;;;;;;18.65;13.50;;;15.80;99.90;;;;;;5115077;28;20168;-51
2022/05/24 00:46:53;;;;;;;18.85;12.35;;;15.80;99.90;;;;;;5114261;28;20546;-50
2022/05/24 00:49:53;;;;;;;18.17;13.50;;;15.80;99.90;;;;;;5114354;28;20636;-52
2022/05/24 00:52:20;;;;;;;17.40;13.95;;;15.80;99.90;;;;;;5114264;28;20161;-51
2022/05/24 00:54:46;;;;;;;21.95;13.23;;;15.80;99.90;;;;;;5113830;28;20175;-50
2022/05/24 00:57:28;;;;;;;16.48;13.15;;;15.90;99.90;;;;;;5096003;28;20161;-51
2022/05/24 01:00:00;;;;;;;15.73;13.13;;;15.90;99.90;;;;;;5114518;28;20156;-50
2022/05/24 01:02:26;;;;;;;16.85;12.10;;;15.90;99.90;;;;;;5114045;28;20164;-51
2022/05/24 01:04:52;;;;;;;17.67;13.00;;;15.90;99.90;;;;;;5114264;28;20228;-52
2022/05/24 01:07:17;;;;;;;18.65;12.20;;;15.80;99.90;;;;;;5113945;28;20584;-52
2022/05/24 01:09:49;;;;;;;14.65;11.07;;;15.80;99.90;;;;;;5114002;28;20620;-52
2022/05/24 01:12:23;;;;;;;14.27;11.50;;;15.80;99.90;;;;;;5113893;28;20624;-52
2022/05/24 01:14:51;;;;;;;11.48;10.15;;;15.70;99.90;;;;;;5113839;28;20630;-52
2022/05/24 01:17:17;;;;;;;11.82;10.57;;;15.70;99.90;;;;;;5113740;28;20176;-51
2022/05/24 01:19:46;;;;;;;13.57;11.10;;;15.70;99.90;;;;;;5113849;28;20168;-50
2022/05/24 01:22:32;;;;;;;13.52;9.73;;;15.70;99.90;;;;;;5113737;28;20161;-50
2022/05/24 01:25:06;;;;;;;12.82;9.73;;;15.70;99.90;;;;;;5113627;28;20217;-51
2022/05/24 01:27:32;;;;;;;15.70;9.88;;;15.60;99.90;;;;;;5113535;28;20196;-52
2022/05/24 01:29:58;;;;;;;13.23;10.10;;;15.60;99.90;;;;;;5113496;28;20626;-51
2022/05/24 01:38:02;;;;;;;14.70;8.77;;;15.60;99.90;;;;;;5113695;28;20179;-51
2022/05/24 01:40:28;;;;;;;10.82;7.90;;;15.50;99.90;;;;;;5113412;28;20161;-52
2022/05/24 01:42:54;;;;;;;11.38;8.27;;;15.50;99.90;;;;;;5113915;28;20285;-52
2022/05/24 01:45:25;;;;;;;11.70;7.28;;;15.50;99.90;;;;;;5113315;28;20199;-53
2022/05/24 01:47:56;;;;;;;13.23;7.32;;;15.40;99.90;;;;;;5113162;28;20209;-52
2022/05/24 01:50:23;;;;;;;11.85;6.90;;;15.40;99.90;;;;;;5113585;28;20215;-52
2022/05/24 01:52:54;;;;;;;9.20;6.90;;;15.30;99.90;;;;;;5113123;28;20700;-52
2022/05/24 01:55:29;;;;;;;11.15;7.57;;;15.30;99.90;;;;;;5113275;28;20536;-52
2022/05/24 01:57:58;;;;;;;5.63;5.00;;;15.30;99.90;;;;;;5113400;28;20168;-52
2022/05/24 02:00:25;;;;;;;10.82;5.28;;;15.20;99.90;;;;;;5113315;28;20161;-51
2022/05/24 02:02:51;;;;;;;9.55;5.00;;;15.00;99.90;;;;;;5113241;28;20176;-51
2022/05/24 02:05:31;;;;;;;7.88;4.88;;;15.00;99.90;;;;;;5112760;28;20216;-52
2022/05/24 02:07:57;;;;;;;7.65;4.80;;;15.00;99.90;;;;;;5113017;28;20624;-51
2022/05/24 02:10:23;;;;;;;6.95;4.47;;;15.00;99.90;;;;;;5113172;28;20161;-52
2022/05/24 02:12:53;;;;;;;6.57;3.88;;;15.00;99.90;;;;;;5113146;28;20292;-52
2022/05/24 02:15:24;;;;;;;7.47;4.57;;;15.00;99.90;;;;;;5112824;28;20164;-52
2022/05/24 02:18:03;;;;;;;8.60;4.53;;;15.00;99.90;;;;;;5113030;28;20564;-51
2022/05/24 02:20:38;;;;;;;7.72;4.05;;;15.00;99.90;;;;;;5112940;28;20592;-52
2022/05/24 02:23:04;;;;;;;6.18;4.53;;;15.00;99.90;;;;;;5112629;28;20519;-52
2022/05/24 02:25:47;;;;;;;8.50;4.70;;;15.00;99.90;;;;;;5112740;28;20247;-52
2022/05/24 02:28:14;;;;;;;12.45;5.00;;;15.00;99.90;;;;;;5112510;28;20611;-52
2022/05/24 02:30:45;;;;;;;8.77;5.30;;;15.00;99.90;;;;;;5112836;28;20248;-52
2022/05/24 02:33:10;;;;;;;7.15;4.70;;;14.90;99.90;;;;;;5112404;28;20179;-52
2022/05/24 02:35:36;;;;;;;10.55;5.97;;;15.00;99.90;;;;;;5112580;28;20164;-52
2022/05/24 02:38:02;;;;;;;6.93;5.32;;;15.00;99.90;;;;;;5112762;28;20164;-52
2022/05/24 02:43:12;;;;;;;7.22;5.28;;;14.90;99.90;;;;;;5112554;28;20221;-50
2022/05/24 02:45:37;;;;;;;8.40;6.03;;;14.90;99.90;;;;;;5112533;28;20166;-52
2022/05/24 02:48:04;;;;;;;12.63;6.43;;;14.80;99.90;;;;;;5116079;28;20212;-50
2022/05/24 02:50:30;;;;;;;7.78;6.40;;;14.80;99.90;;;;;;5116960;28;20591;-50
2022/05/24 02:52:56;;;;;;;9.73;5.63;;;14.80;99.90;;;;;;5116861;28;20224;-48
2022/05/24 02:55:22;;;;;;;8.10;5.60;;;14.70;99.90;;;;;;5116860;28;20164;-52
2022/05/24 02:57:48;;;;;;;13.80;6.05;;;14.70;99.90;;;;;;5116532;28;20182;-52
2022/05/24 03:00:18;;;;;;;10.98;5.75;;;14.70;99.90;;;;;;5116559;28;20188;-52
2022/05/24 03:02:44;;;;;;;10.60;5.85;;;14.70;99.90;;;;;;5116416;28;20212;-52
2022/05/24 03:05:12;;;;;;;8.90;5.30;;;14.70;99.90;;;;;;5116166;28;20235;-52
2022/05/24 03:10:23;;;;;;;6.60;4.63;;;14.70;99.90;;;;;;5116983;28;20171;-52
2022/05/24 03:15:36;;;;;;;7.38;4.50;;;14.60;99.90;;;;;;5116572;28;20203;-51
2022/05/24 03:18:01;;;;;;;7.53;4.22;;;14.60;99.90;;;;;;5116159;28;20209;-51
2022/05/24 03:20:27;;;;;;;6.82;4.40;;;14.60;99.90;;;;;;5116331;28;20255;-50
2022/05/24 03:22:53;;;;;;;7.45;4.70;;;14.60;99.90;;;;;;5116617;28;20164;-48
2022/05/24 03:25:19;;;;;;;9.43;4.93;;;14.60;99.90;;;;;;5115951;28;20172;-49
2022/05/24 03:27:48;;;;;;;13.18;4.80;;;14.60;99.90;;;;;;5115909;28;20208;-49
2022/05/24 03:30:15;;;;;;;9.90;4.68;;;14.60;99.90;;;;;;5115890;28;20169;-50
2022/05/24 03:32:41;;;;;;;10.00;4.28;;;14.70;99.90;;;;;;5115881;28;20244;-48
2022/05/24 03:35:08;;;;;;;9.82;5.07;;;14.60;99.90;;;;;;5115790;28;20589;-48
2022/05/24 03:37:34;;;;;;;9.50;4.88;;;14.70;99.90;;;;;;5115688;28;20183;-50
2022/05/24 03:39:59;;;;;;;10.38;4.25;;;14.70;99.90;;;;;;5115880;28;20168;-48
2022/05/24 03:42:25;;;;;;;11.68;4.80;;;14.70;99.90;;;;;;5115950;28;20161;-48
2022/05/24 03:44:51;;;;;;;8.60;3.72;;;14.70;99.90;;;;;;5115633;28;20165;-50
2022/05/24 03:47:16;;;;;;;7.47;3.50;;;14.70;99.90;;;;;;5115689;28;20240;-49
2022/05/24 03:49:42;;;;;;;8.63;3.40;;;14.60;99.90;;;;;;5115522;28;20176;-48
2022/05/24 03:52:08;;;;;;;8.10;4.03;;;14.60;99.90;;;;;;5115458;28;20168;-49
2022/05/24 03:54:33;;;;;;;5.28;3.38;;;14.60;99.90;;;;;;5115432;28;20203;-48
2022/05/24 03:59:44;;;;;;;7.80;3.45;;;14.50;99.90;;;;;;5115649;28;20172;-48
2022/05/24 04:02:09;;;;;;;12.60;3.83;;;14.50;99.90;;;;;;5115350;28;20161;-48
2022/05/24 04:04:35;;;;;;;5.70;3.70;;;14.50;99.90;;;;;;5115093;28;20237;-48
2022/05/24 04:07:01;;;;;;;6.32;3.22;;;14.50;99.90;;;;;;5115122;28;20200;-50
2022/05/24 04:09:26;;;;;;;5.72;3.17;;;14.50;99.90;;;;;;5114875;28;20161;-47
2022/05/24 04:11:55;;;;;;;7.22;3.08;;;14.50;99.90;;;;;;5115390;28;20196;-50
2022/05/24 04:14:21;;;;;;;11.38;3.65;;;14.40;99.90;;;;;;5115152;28;20167;-50
2022/05/24 04:16:47;;;;;;;4.70;2.70;;;14.40;99.90;;;;;;5114962;28;20171;-49
2022/05/24 04:19:12;;;;;;;6.45;3.47;;;14.40;99.90;;;;;;5115237;28;20172;-48
2022/05/24 04:21:38;;;;;;;8.48;3.30;;;14.40;99.90;;;;;;5114996;28;20501;-48
2022/05/24 04:24:04;;;;;;;7.85;2.95;;;14.30;99.90;;;;;;5114888;28;20716;-50
2022/05/24 04:26:30;;;;;;;8.20;3.17;;;14.30;99.90;;;;;;5114755;28;20620;-49
2022/05/24 04:28:56;;;;;;;13.05;3.08;;;14.30;99.90;;;;;;5114988;28;20643;-48
2022/05/24 04:31:21;;;;;;;6.57;3.15;;;14.30;99.90;;;;;;5115033;28;20165;-49
2022/05/24 04:33:47;;;;;;;6.93;3.13;;;14.20;99.90;;;;;;5114827;28;20221;-48
2022/05/24 04:36:13;;;;;;;9.18;3.10;;;14.10;99.90;;;;;;5114671;28;20292;-50
2022/05/24 04:38:38;;;;;;;7.65;3.03;;;14.10;99.90;;;;;;5114561;28;20618;-48
2022/05/24 04:43:48;;;;;;;6.65;2.90;;;14.10;99.90;;;;;;5114562;28;20221;-50
2022/05/24 04:46:13;;;;;;;10.70;3.55;;;14.10;99.90;;;;;;5114295;28;20164;-48
2022/05/24 04:48:39;;;;;;;6.40;3.20;;;14.10;99.90;;;;;;5114466;28;20204;-47
2022/05/24 04:51:05;;;;;;;7.47;3.15;;;14.10;99.90;;;;;;5114131;28;20174;-49
2022/05/24 04:53:31;;;;;;;5.35;2.80;;;14.10;99.90;;;;;;5114166;28;20174;-50
2022/05/24 04:55:56;;;;;;;7.07;2.95;;;14.00;99.90;;;;;;5114173;28;20655;-49
2022/05/24 04:58:22;;;;;;;7.45;2.97;;;14.10;99.90;;;;;;5114683;28;20173;-51
2022/05/24 05:00:48;;;;;;;7.43;3.00;;;14.00;99.90;;;;;;5114182;28;20650;-50
2022/05/24 05:03:17;;;;;;;5.10;2.92;;;14.00;99.90;;;;;;5114172;28;20526;-51
2022/05/24 05:05:44;;;;;;;10.27;2.90;;;13.90;99.90;;;;;;5113963;28;20212;-51
2022/05/24 05:08:10;;;;;;;9.02;3.08;;;13.90;99.90;;;;;;5113863;28;20291;-51
2022/05/24 05:10:37;;;;;;;9.63;2.85;;;13.90;99.90;;;;;;5113467;28;20276;-51
2022/05/24 05:13:03;;;;;;;4.40;2.83;;;13.90;99.90;;;;;;5114179;28;20179;-51
2022/05/24 05:15:30;;;;;;;5.03;2.35;;;13.90;99.90;;;;;;5114192;28;20570;-51
2022/05/24 05:18:13;;;;;;;6.65;2.75;;;13.70;99.90;;;;;;5114408;28;20518;-51
2022/05/24 05:20:41;;;;;;;5.55;2.25;;;13.70;99.90;;;;;;5113865;28;20169;-51
2022/05/24 05:23:09;;;;;;;5.68;2.40;;;13.80;99.90;;;;;;5078653;28;20196;-51
2022/05/24 05:25:34;;;;;;;4.90;2.72;;;13.70;99.90;;;;;;5113844;28;20172;-51
2022/05/24 05:28:00;;;;;;;4.75;2.35;;;13.60;99.90;;;;;;5113599;28;20208;-51
2022/05/24 05:33:10;;;;;;;5.93;1.92;;;13.50;99.90;;;;;;5113869;28;20176;-51
2022/05/24 05:35:36;;;;;;;4.15;2.03;;;13.50;99.90;;;;;;5113747;28;20300;-50
2022/05/24 05:38:01;;;;;;;6.20;1.73;;;13.40;99.90;;;;;;5113447;28;20647;-51
2022/05/24 05:40:27;;;;;;;2.90;1.55;;;13.30;99.90;;;;;;5113554;28;20176;-51
2022/05/24 05:42:52;;;;;;;2.80;1.67;;;13.30;99.90;;;;;;5113706;28;20164;-51
2022/05/24 05:45:18;;;;;;;5.57;1.60;;;13.20;99.90;;;;;;5113326;28;20173;-51
2022/05/24 05:47:43;;;;;;;6.05;1.80;;;13.20;99.90;;;;;;5113029;28;20227;-51
2022/05/24 05:50:09;;;;;;;4.05;1.75;;;13.20;99.90;;;;;;5113114;28;20245;-51
2022/05/24 05:52:35;;;;;;;3.85;1.60;;;13.00;99.90;;;;;;5113088;28;20323;-51
2022/05/24 05:55:01;;;;;;;3.85;1.35;;;13.00;99.90;;;;;;5113276;28;20639;-51
2022/05/24 05:57:26;;;;;;;4.40;1.73;;;13.10;99.90;;;;;;5112979;28;20173;-51
2022/05/24 05:59:53;;;;;;;6.85;1.60;;;13.00;99.90;;;;;;5113507;28;20165;-51
2022/05/24 06:02:18;;;;;;;4.47;1.65;;;12.90;99.90;;;;;;5112873;28;20681;-51
2022/05/24 06:04:44;;;;;;;3.35;1.50;;;13.00;99.90;;;;;;5112756;28;20204;-50
2022/05/24 06:07:10;;;;;;;5.95;1.73;;;13.00;99.90;;;;;;5112801;28;20211;-49
2022/05/24 06:09:36;;;;;;;7.13;1.90;;;13.10;99.90;;;;;;5094920;28;20534;-49
2022/05/24 06:12:02;;;;;;;3.28;1.60;;;13.10;99.90;;;;;;5097723;28;20173;-46
2022/05/24 06:14:28;;;;;;;5.22;1.70;;;13.10;99.90;;;;;;5091160;28;20230;-51
2022/05/24 06:16:54;;;;;;;4.15;1.70;;;13.10;99.90;;;;;;5091528;28;20165;-49
2022/05/24 06:19:19;;;;;;;2.85;1.88;;;13.20;99.90;;;;;;5072839;28;20169;-48
2022/05/24 06:21:45;;;;;;;3.13;1.30;;;13.30;99.90;;;;;;5090256;28;20627;-46
2022/05/24 06:24:11;;;;;;;4.20;1.63;;;13.20;99.90;;;;;;5091093;28;20169;-45
2022/05/24 06:26:36;;;;;;;2.97;1.15;;;13.20;99.90;;;;;;5091175;28;20186;-44
2022/05/24 06:29:05;;;;;;;3.55;1.52;;;13.10;99.90;;;;;;5111342;28;20176;-47
2022/05/24 06:31:30;;;;;;;5.53;1.60;;;13.20;99.90;;;;;;5111273;28;20542;-46
2022/05/24 06:33:56;;;;;;;2.67;1.45;;;13.10;99.90;;;;;;5111256;28;20173;-45
2022/05/24 06:36:22;;;;;;;2.60;1.38;;;13.20;99.90;;;;;;5111530;28;20191;-46
2022/05/24 06:38:47;;;;;;;2.17;1.50;;;13.10;99.90;;;;;;5111196;28;20201;-47
2022/05/24 06:41:13;;;;;;;7.38;1.33;;;13.20;99.90;;;;;;5111166;28;20574;-49
2022/05/24 06:43:39;;;;;;;3.30;1.65;;;13.20;99.90;;;;;;5111409;28;20255;-45
2022/05/24 06:46:07;;;;;;;4.63;1.60;;;13.30;99.90;;;;;;5111149;28;20669;-48
2022/05/24 06:48:42;;;;;;;6.75;1.73;;;13.40;99.90;;;;;;5111178;28;20420;-46
2022/05/24 06:51:13;;;;;;;4.25;1.77;;;13.50;99.90;;;;;;5111209;28;20152;-48
2022/05/24 06:53:40;;;;;;;6.75;1.63;;;13.70;99.90;;;;;;5111050;28;20195;-50
2022/05/24 06:56:07;;;;;;;3.80;1.88;;;13.80;99.90;;;;;;5094814;28;20211;-50
2022/05/24 06:58:33;;;;;;;3.58;1.60;;;13.90;99.90;;;;;;5091537;28;20629;-45
2022/05/24 07:03:45;;;;;;;2.63;1.60;;;14.10;99.90;;;;;;5091901;28;20261;-48
2022/05/24 07:06:12;;;;;;;6.03;1.60;;;13.90;99.90;;;;;;5092018;28;20180;-48
2022/05/24 07:08:39;;;;;;;4.25;1.70;;;13.90;99.90;;;;;;5091909;28;20215;-46
2022/05/24 07:11:04;;;;;;;4.65;1.95;;;13.90;99.90;;;;;;5091854;28;20530;-48
2022/05/24 07:13:30;;;;;;;5.30;1.77;;;14.10;99.90;;;;;;5073984;28;20187;-48
2022/05/24 07:15:55;;;;;;;3.47;1.50;;;14.20;99.90;;;;;;5092078;28;20204;-48
2022/05/24 07:18:21;;;;;;;4.15;1.75;;;14.20;99.90;;;;;;5091970;28;20651;-46
2022/05/24 07:20:46;;;;;;;5.20;2.28;;;14.00;99.90;;;;;;5091438;28;20165;-48
2022/05/24 07:23:16;;;;;;;6.63;2.03;;;14.20;99.90;;;;;;5091731;28;20177;-47
2022/05/24 07:25:44;;;;;;;5.85;2.10;;;14.50;99.90;;;;;;5091880;28;20165;-48
2022/05/24 07:28:12;;;;;;;6.13;2.20;;;14.60;99.90;;;;;;5091908;28;20217;-48
2022/05/24 07:30:38;;;;;;;4.95;2.05;;;14.70;99.90;;;;;;5091670;28;20666;-46
2022/05/24 07:33:04;;;;;;;6.47;2.67;;;14.90;99.90;;;;;;5093351;28;20640;-45
2022/05/24 07:35:30;;;;;;;3.65;2.08;;;14.90;99.90;;;;;;5095635;28;20162;-48
2022/05/24 07:37:55;;;;;;;4.07;1.75;;;15.10;99.90;;;;;;5077481;28;20505;-46
2022/05/24 07:45:54;;;;;;;4.63;1.88;;;15.10;99.90;;;;;;5095151;28;20196;-46
2022/05/24 07:48:20;;;;;;;5.85;2.35;;;15.10;99.90;;;;;;5095102;28;20205;-49
2022/05/24 07:50:46;;;;;;;3.75;1.60;;;15.20;99.90;;;;;;5095001;28;20169;-47
2022/05/24 07:53:12;;;;;;;1.40;1.27;;;15.30;99.90;;;;;;5095054;28;20192;-47
2022/05/24 07:55:38;;;;;;;6.10;1.52;;;15.20;99.90;;;;;;5095102;28;20164;-48
2022/05/24 07:58:04;;;;;;;4.18;2.17;;;15.30;99.90;;;;;;5076785;28;20165;-46
2022/05/24 08:00:30;;;;;;;5.10;1.80;;;15.40;99.90;;;;;;5095153;28;20166;-46
2022/05/24 08:02:56;;;;;;;4.80;1.70;;;15.70;99.90;;;;;;5094896;28;20517;-45
2022/05/24 08:05:22;;;;;;;4.25;1.70;;;15.40;99.90;;;;;;5094988;28;20224;-46
2022/05/24 08:07:49;;;;;;;3.15;1.63;;;15.60;99.90;;;;;;5094678;28;20193;-44
2022/05/24 08:10:15;;;;;;;6.57;1.85;;;15.70;99.90;;;;;;5094794;28;20524;-45
2022/05/24 08:12:41;;;;;;;4.85;1.45;;;15.70;99.90;;;;;;5094690;28;20242;-45
2022/05/24 08:15:06;;;;;;;3.97;1.48;;;15.90;99.90;;;;;;5076522;28;20227;-45
2022/05/24 08:17:34;;;;;;;2.97;1.73;;;15.80;99.90;;;;;;5094588;28;20234;-44
2022/05/24 08:19:59;;;;;;;3.53;1.58;;;15.60;99.90;;;;;;5094871;28;20173;-45
2022/05/24 08:22:25;;;;;;;4.90;1.60;;;15.50;99.90;;;;;;5076788;28;20191;-50
2022/05/24 08:24:50;;;;;;;4.07;1.33;;;15.50;99.90;;;;;;5094270;28;20174;-48
2022/05/24 08:27:16;;;;;;;4.18;1.65;;;16.00;99.90;;;;;;5094298;28;20200;-48
2022/05/24 08:29:41;;;;;;;3.88;1.33;;;16.30;99.90;;;;;;5094314;28;20219;-49
2022/05/24 08:32:07;;;;;;;4.93;1.40;;;16.70;99.90;;;;;;5094388;28;20625;-49
2022/05/24 08:34:33;;;;;;;3.40;1.42;;;16.80;99.90;;;;;;5094319;28;20177;-49
2022/05/24 08:37:00;;;;;;;2.45;1.55;;;16.80;99.90;;;;;;5094435;28;20169;-49
2022/05/24 08:39:26;;;;;;;3.25;1.52;;;17.10;99.90;;;;;;5094426;28;20165;-49
2022/05/24 08:42:17;;;;;;;7.60;1.85;;;17.10;99.90;;;;;;5094494;28;20533;-50
2022/05/24 08:50:24;;;;;;;1.30;0.85;;;16.90;99.90;;;;;;5094631;28;20525;-48
2022/05/24 08:52:58;;;;;;;2.25;1.23;;;16.40;99.90;;;;;;5093987;28;20234;-49
2022/05/24 08:55:26;;;;;;;2.78;1.10;;;16.60;99.90;;;;;;5094238;28;20667;-47
2022/05/24 08:57:57;;;;;;;5.07;1.35;;;16.50;99.90;;;;;;5094264;28;20655;-47
2022/05/24 09:00:32;;;;;;;2.47;1.25;;;16.30;99.90;;;;;;5094110;28;20158;-49
2022/05/24 09:02:58;;;;;;;5.13;1.30;;;16.10;99.90;;;;;;5093735;28;20200;-47
2022/05/24 09:05:26;;;;;;;1.05;0.98;;;16.00;99.90;;;;;;5093797;28;20323;-45
2022/05/24 09:08:21;;;;;;;2.15;1.63;;;16.10;99.90;;;;;;5093940;28;20664;-45
2022/05/24 09:10:59;;;;;;;2.67;1.35;;;15.90;99.90;;;;;;5093570;28;20197;-45
2022/05/24 09:13:38;;;;;;;4.85;1.50;;;15.90;99.90;;;;;;5093877;28;20625;-46
2022/05/24 09:16:13;;;;;;;1.75;1.33;;;15.90;99.90;;;;;;5093525;28;20282;-45
2022/05/24 09:19:21;;;;;;;3.03;1.30;;;16.20;99.90;;;;;;5093509;28;20619;-45
2022/05/24 09:21:51;;;;;;;2.80;1.23;;;16.50;99.90;;;;;;5093718;28;20169;-45
2022/05/24 09:24:33;;;;;;;3.20;1.35;;;16.60;99.90;;;;;;5093617;28;20200;-46
2022/05/24 09:27:13;;;;;;;1.70;1.00;;;17.10;99.90;;;;;;5093174;28;20203;-45
2022/05/24 09:29:52;;;;;;;1.48;1.23;;;17.20;99.90;;;;;;5093289;28;20173;-45
2022/05/24 09:32:19;;;;;;;4.18;1.30;;;17.30;99.90;;;;;;5075024;28;20200;-44
2022/05/24 09:34:45;;;;;;;4.28;1.38;;;17.60;99.90;;;;;;5093427;28;20177;-44
2022/05/24 09:37:22;;;;;;;1.77;1.25;;;17.50;99.90;;;;;;5093254;28;20214;-50
2022/05/24 09:40:06;;;;;;;4.20;1.48;;;17.50;99.90;;;;;;5093040;28;20665;-50
2022/05/24 09:42:36;;;;;;;3.10;1.20;;;17.30;99.90;;;;;;5093082;28;20161;-48
2022/05/24 09:45:15;;;;;;;1.95;1.35;;;17.50;99.90;;;;;;5092903;28;20169;-45
2022/05/24 09:47:43;;;;;;;1.90;1.30;;;17.60;99.90;;;;;;5093012;28;20292;-46
2022/05/24 09:50:15;;;;;;;3.72;1.50;;;17.80;99.90;;;;;;5092904;28;20175;-46
2022/05/24 09:52:42;;;;;;;1.67;1.33;;;17.60;99.90;;;;;;5092997;28;20173;-48
2022/05/24 09:55:07;;;;;;;2.47;1.60;;;17.90;99.90;;;;;;5092671;28;20577;-46
2022/05/24 09:57:33;;;;;;;4.82;1.38;;;17.80;99.90;;;;;;5093052;28;20169;-46
2022/05/24 10:00:20;;;;;;;4.18;1.27;;;18.00;99.90;;;;;;5092682;28;20286;-47
2022/05/24 10:02:47;;;;;;;2.25;1.38;;;18.10;99.90;;;;;;5092709;28;21251;-47
2022/05/24 10:05:22;;;;;;;2.30;1.10;;;18.50;99.90;;;;;;5092491;28;20224;-46
2022/05/24 10:08:04;;;;;;;3.35;1.25;;;18.30;99.90;;;;;;5092460;28;20197;-47
2022/05/24 10:10:37;;;;;;;2.85;1.50;;;18.30;99.90;;;;;;5075552;28;20565;-47
2022/05/24 10:13:11;;;;;;;2.55;1.40;;;18.10;99.90;;;;;;5092520;28;20636;-48
2022/05/24 10:15:54;;;;;;;3.55;1.63;;;18.10;99.90;;;;;;5092492;28;20195;-46
2022/05/24 10:18:40;;;;;;;3.67;1.63;;;18.00;99.90;;;;;;5092433;28;20204;-47
2022/05/24 10:21:24;;;;;;;2.78;1.38;;;18.10;99.90;;;;;;5092358;28;20172;-46
2022/05/24 10:23:56;;;;;;;3.28;1.60;;;18.30;99.90;;;;;;5092606;28;20173;-49
2022/05/24 10:26:41;;;;;;;2.92;1.48;;;18.20;99.90;;;;;;5092690;28;20653;-48
2022/05/24 10:29:15;;;;;;;3.55;1.65;;;18.10;99.90;;;;;;5092525;28;20612;-47
2022/05/24 10:32:02;;;;;;;2.67;1.77;;;18.00;99.90;;;;;;5092223;28;20164;-47
2022/05/24 10:40:38;;;;;;;4.47;1.20;;;18.10;99.90;;;;;;5092193;28;20168;-47
2022/05/24 10:43:33;;;;;;;2.22;1.38;;;17.90;99.90;;;;;;5092182;28;20165;-45
2022/05/24 10:46:08;;;;;;;5.75;1.10;;;18.00;99.90;;;;;;5092014;28;20240;-47
2022/05/24 10:49:11;;;;;;;3.30;1.15;;;17.60;99.90;;;;;;5092200;28;20236;-45
2022/05/24 10:51:52;;;;;;;2.05;1.25;;;17.70;99.90;;;;;;5092060;28;20705;-46
2022/05/24 10:54:53;;;;;;;3.38;1.52;;;18.10;99.90;;;;;;5092016;28;20163;-45
2022/05/24 10:57:29;;;;;;;3.92;1.50;;;18.40;99.90;;;;;;5091899;28;20541;-49
2022/05/24 11:00:06;;;;;;;3.65;1.50;;;18.60;99.90;;;;;;5092574;28;20161;-46
2022/05/24 11:02:43;;;;;;;4.97;1.48;;;18.90;99.90;;;;;;5092204;28;20531;-47
2022/05/24 11:05:20;;;;;;;4.43;1.63;;;18.70;99.90;;;;;;5091779;28;20299;-46
2022/05/24 11:07:56;;;;;;;3.65;1.52;;;18.80;99.90;;;;;;5093108;28;20257;-46
2022/05/24 11:10:33;;;;;;;4.20;1.63;;;19.30;99.90;;;;;;5096323;28;20244;-45
2022/05/24 11:13:04;;;;;;;1.95;1.30;;;19.40;99.90;;;;;;5095735;28;20221;-49
2022/05/24 11:15:41;;;;;;;2.75;1.70;;;19.30;99.90;;;;;;5095897;28;20287;-49
2022/05/24 11:18:12;;;;;;;3.78;1.73;;;18.90;99.90;;;;;;5095840;28;20512;-50
2022/05/24 11:20:43;;;;;;;3.40;1.40;;;18.60;99.90;;;;;;5095791;28;20528;-49
2022/05/24 11:23:16;;;;;;;3.15;1.63;;;18.60;99.90;;;;;;5095727;28;20195;-49
2022/05/24 11:26:09;;;;;;;1.80;1.10;;;18.50;99.90;;;;;;5095886;28;20161;-49
2022/05/24 11:28:42;;;;;;;4.07;1.45;;;18.30;99.90;;;;;;5095486;28;20254;-49
2022/05/24 11:31:34;;;;;;;2.55;1.33;;;18.10;99.90;;;;;;5095568;28;20172;-45
2022/05/24 11:34:01;;;;;;;3.53;1.55;;;18.60;99.90;;;;;;5095519;28;20165;-47
2022/05/24 11:36:42;;;;;;;4.15;1.80;;;19.10;99.90;;;;;;5095400;28;20660;-45
2022/05/24 11:39:24;;;;;;;5.53;1.55;;;18.90;99.90;;;;;;5095661;28;20173;-47
2022/05/24 11:42:18;;;;;;;5.25;1.80;;;19.10;99.90;;;;;;5095336;28;20202;-49
2022/05/24 11:44:44;;;;;;;3.03;1.50;;;18.90;99.90;;;;;;5095314;28;20238;-49
2022/05/24 11:47:35;;;;;;;4.07;1.75;;;18.50;99.90;;;;;;5095295;28;20200;-49
2022/05/24 11:50:04;;;;;;;3.15;1.50;;;18.20;99.90;;;;;;5095084;28;20221;-45
2022/05/24 11:53:00;;;;;;;2.58;1.73;;;18.30;99.90;;;;;;5095147;28;20154;-47
2022/05/24 11:55:45;;;;;;;3.03;1.60;;;18.20;99.90;;;;;;5094960;28;20582;-44
2022/05/24 11:58:19;;;;;;;1.98;1.77;;;18.90;99.90;;;;;;5095052;28;20165;-49
2022/05/24 12:01:03;;;;;;;7.07;1.83;;;19.40;99.90;;;;;;5094978;28;20221;-46
2022/05/24 12:09:16;;;;;;;2.88;1.50;;;19.00;99.90;;;;;;5094846;28;20184;-46
2022/05/24 12:11:42;;;;;;;2.92;1.35;;;19.00;99.90;;;;;;5094824;28;20164;-47
2022/05/24 12:14:35;;;;;;;2.85;1.30;;;18.70;99.90;;;;;;5094762;28;20218;-48
2022/05/24 12:17:01;;;;;;;4.05;1.35;;;18.60;99.90;;;;;;5076815;28;20176;-48
2022/05/24 12:19:40;;;;;;;3.22;1.65;;;18.40;99.90;;;;;;5093214;28;20165;-45
2022/05/24 12:22:08;;;;;;;4.82;1.70;;;18.40;99.90;;;;;;5094850;28;20179;-46
2022/05/24 12:24:47;;;;;;;3.35;1.60;;;18.50;99.90;;;;;;5094526;28;20639;-49
2022/05/24 12:27:27;;;;;;;3.13;1.20;;;18.60;99.90;;;;;;5094736;28;20293;-49
2022/05/24 12:30:16;;;;;;;1.65;1.50;;;18.80;99.90;;;;;;5094872;28;20233;-44
2022/05/24 12:32:41;;;;;;;3.72;1.48;;;18.70;99.90;;;;;;5094470;28;20162;-45
2022/05/24 12:35:11;;;;;;;3.20;1.63;;;18.70;99.90;;;;;;5094289;28;20667;-45
2022/05/24 12:37:55;;;;;;;4.32;1.85;;;18.70;99.90;;;;;;5094556;28;20192;-48
2022/05/24 12:40:24;;;;;;;5.10;1.63;;;18.60;99.90;;;;;;5094303;28;20174;-46
2022/05/24 12:42:57;;;;;;;2.95;1.20;;;18.60;99.90;;;;;;5094458;28;20223;-49
2022/05/24 12:45:32;;;;;;;8.02;1.40;;;18.50;99.90;;;;;;5094540;28;20162;-49
2022/05/24 12:47:58;;;;;;;4.78;1.70;;;18.40;99.90;;;;;;5093987;28;20197;-46
2022/05/24 12:50:34;;;;;;;3.30;1.90;;;18.40;99.90;;;;;;5094393;28;20168;-45
2022/05/24 12:53:04;;;;;;;3.88;1.48;;;18.20;99.90;;;;;;5093849;28;20180;-45
2022/05/24 12:58:32;;;;;;;3.60;2.08;;;18.20;99.90;;;;;;5094183;28;20176;-45
2022/05/24 13:01:24;;;;;;;2.78;1.85;;;18.20;99.90;;;;;;5093812;28;20162;-45
2022/05/24 13:04:11;;;;;;;3.55;1.80;;;17.90;99.90;;;;;;5093639;28;20629;-45
2022/05/24 13:06:40;;;;;;;3.35;1.80;;;18.00;99.90;;;;;;5093645;28;20248;-46
2022/05/24 13:09:19;;;;;;;3.67;2.08;;;18.40;99.90;;;;;;5093594;28;20205;-45
2022/05/24 13:11:49;;;;;;;2.17;1.50;;;19.00;99.90;;;;;;5093623;28;20177;-46
2022/05/24 13:14:44;;;;;;;3.05;1.98;;;19.00;99.90;;;;;;5093752;28;20256;-44
2022/05/24 13:17:11;;;;;;;2.53;1.60;;;19.00;99.90;;;;;;5093442;28;20165;-45
2022/05/24 13:19:50;;;;;;;4.32;2.20;;;18.90;99.90;;;;;;5093536;28;20162;-45
2022/05/24 13:22:16;;;;;;;2.38;1.42;;;18.80;99.90;;;;;;5093727;28;20169;-44
2022/05/24 13:24:58;;;;;;;4.63;1.80;;;19.20;99.90;;;;;;5093415;28;20227;-47
2022/05/24 13:27:25;;;;;;;3.17;1.73;;;19.20;99.90;;;;;;5093608;28;20197;-45
2022/05/24 13:35:25;;;;;;;3.40;1.50;;;19.80;99.90;;;;;;5093741;28;20168;-44
2022/05/24 13:37:54;;;;;;;2.65;1.80;;;19.60;99.90;;;;;;5093829;28;20169;-46
2022/05/24 13:40:41;;;;;;;1.67;1.23;;;19.50;99.90;;;;;;5093031;28;20164;-45
2022/05/24 13:43:07;;;;;;;1.65;1.15;;;19.40;99.90;;;;;;5093068;28;20168;-45
2022/05/24 13:45:34;;;;;;;1.30;0.85;;;19.20;99.90;;;;;;5092974;28;20161;-46
2022/05/24 13:48:21;;;;;;;2.28;0.90;;;18.80;99.90;;;;;;5092767;28;20702;-45
2022/05/24 13:50:47;;;;;;;2.42;1.15;;;18.60;99.90;;;;;;5092896;28;20161;-45
2022/05/24 13:53:37;;;;;;;2.70;1.35;;;18.50;99.90;;;;;;5074714;28;20222;-50
2022/05/24 13:56:26;;;;;;;2.03;1.30;;;18.70;99.90;;;;;;5093219;28;20177;-49
2022/05/24 13:59:17;;;;;;;1.90;1.42;;;18.60;99.90;;;;;;5093283;28;20188;-49